createdAt,value
2023-07-25T00:02:56.202Z,18.33
2023-07-25T00:08:18.676Z,14.65
2023-07-25T00:13:40.785Z,11.52
2023-07-25T00:19:04.360Z,10.52
2023-07-25T00:24:26.359Z,9.43
2023-07-25T00:29:48.833Z,11.55
2023-07-25T00:35:12.877Z,12.30
2023-07-25T00:40:39.573Z,10.68
2023-07-25T00:46:01.868Z,11.18
2023-07-25T00:51:32.415Z,10.82
2023-07-25T00:57:01.651Z,8.73
2023-07-25T01:02:23.722Z,9.15
2023-07-25T01:07:47.509Z,8.02
2023-07-25T01:13:11.151Z,7.35
2023-07-25T01:18:33.675Z,7.38
2023-07-25T01:24:01.832Z,6.00
2023-07-25T01:29:25.684Z,6.13
2023-07-25T01:34:47.667Z,5.40
2023-07-25T01:40:10.381Z,4.68
2023-07-25T01:45:34.611Z,4.50
2023-07-25T01:50:58.669Z,4.68
2023-07-25T01:56:21.329Z,4.75
2023-07-25T02:01:44.759Z,4.18
2023-07-25T02:07:07.121Z,4.25
2023-07-25T02:12:31.136Z,4.38
2023-07-25T02:17:54.890Z,4.63
2023-07-25T02:23:17.034Z,4.53
2023-07-25T02:28:39.373Z,3.75
2023-07-25T02:34:03.394Z,3.75
2023-07-25T02:39:25.482Z,4.35
2023-07-25T02:44:47.755Z,4.05
2023-07-25T02:50:11.878Z,4.00
2023-07-25T02:55:33.808Z,4.72
2023-07-25T03:00:56.122Z,4.10
2023-07-25T03:06:19.996Z,4.20
2023-07-25T03:11:42.537Z,3.53
2023-07-25T03:17:04.837Z,3.65
2023-07-25T03:22:28.392Z,3.60
2023-07-25T03:27:50.380Z,4.35
2023-07-25T03:33:12.262Z,5.18
2023-07-25T03:38:41.925Z,9.43
2023-07-25T03:44:10.822Z,9.27
2023-07-25T03:49:39.828Z,9.32
2023-07-25T03:55:03.157Z,8.15
2023-07-25T04:00:25.363Z,8.68
2023-07-25T04:05:53.395Z,6.27
2023-07-25T04:11:17.130Z,5.78
2023-07-25T04:16:39.130Z,5.35
2023-07-25T04:22:00.960Z,5.47
2023-07-25T04:27:24.213Z,4.30
2023-07-25T04:32:46.775Z,4.55
2023-07-25T04:38:08.696Z,5.22
2023-07-25T04:43:32.000Z,4.72
2023-07-25T04:48:54.138Z,4.47
2023-07-25T04:54:16.598Z,4.32
2023-07-25T04:59:40.126Z,5.07
2023-07-25T05:05:02.208Z,4.63
2023-07-25T05:10:24.476Z,4.07
2023-07-25T05:15:47.985Z,4.07
2023-07-25T05:21:10.281Z,4.53
2023-07-25T05:26:32.359Z,4.25
2023-07-25T05:31:56.182Z,4.18
2023-07-25T05:37:19.449Z,4.53
2023-07-25T05:42:41.363Z,5.75
2023-07-25T05:48:05.488Z,5.35
2023-07-25T05:53:27.328Z,5.05
2023-07-25T05:58:50.007Z,5.07
2023-07-25T06:04:14.952Z,5.70
2023-07-25T06:09:36.693Z,4.60
2023-07-25T06:14:59.059Z,4.20
2023-07-25T06:20:22.409Z,4.47
2023-07-25T06:25:44.342Z,4.35
2023-07-25T06:31:06.684Z,4.35
2023-07-25T06:36:29.980Z,4.38
2023-07-25T06:41:52.253Z,4.53
2023-07-25T06:47:16.253Z,3.75
2023-07-25T06:52:39.850Z,3.55
2023-07-25T06:58:03.011Z,3.53
2023-07-25T07:03:25.521Z,4.07
2023-07-25T07:08:49.609Z,3.70
2023-07-25T07:14:11.741Z,4.47
2023-07-25T07:19:33.648Z,3.38
2023-07-25T07:24:58.516Z,3.67
2023-07-25T07:30:27.433Z,3.55
2023-07-25T07:35:49.453Z,3.42
2023-07-25T07:41:13.602Z,3.50
2023-07-25T07:46:36.900Z,3.60
2023-07-25T07:52:13.502Z,3.35
2023-07-25T07:57:42.069Z,3.22
2023-07-25T08:03:04.573Z,3.17
2023-07-25T08:08:26.934Z,2.80
2023-07-25T08:13:50.148Z,3.17
2023-07-25T08:19:12.200Z,2.90
2023-07-25T08:24:34.437Z,2.90
2023-07-25T08:29:58.048Z,2.78
2023-07-25T08:35:20.388Z,2.95
2023-07-25T08:40:43.863Z,3.65
2023-07-25T08:46:08.561Z,2.95
2023-07-25T08:51:33.745Z,3.60
2023-07-25T08:56:56.848Z,2.70
2023-07-25T09:02:20.971Z,3.25
2023-07-25T09:07:43.253Z,2.80
2023-07-25T09:13:05.738Z,3.33
2023-07-25T09:18:29.229Z,3.50
2023-07-25T09:23:54.346Z,3.25
2023-07-25T09:29:18.540Z,2.95
2023-07-25T09:34:45.541Z,3.00
2023-07-25T09:40:09.805Z,3.38
2023-07-25T09:45:37.898Z,3.70
2023-07-25T09:51:01.276Z,3.25
2023-07-25T09:56:24.249Z,3.88
2023-07-25T10:01:46.928Z,3.10
2023-07-25T10:07:11.022Z,3.55
2023-07-25T10:12:33.089Z,3.20
2023-07-25T10:18:02.960Z,3.10
2023-07-25T10:23:33.321Z,3.00
2023-07-25T10:28:55.520Z,3.55
2023-07-25T10:34:17.951Z,3.00
2023-07-25T10:39:41.375Z,3.50
2023-07-25T10:50:29.705Z,3.40
2023-07-25T10:56:09.029Z,2.67
2023-07-25T11:01:40.934Z,3.47
2023-07-25T11:07:10.725Z,3.10
2023-07-25T11:12:34.093Z,3.00
2023-07-25T11:17:57.860Z,2.90
2023-07-25T11:23:22.613Z,3.33
2023-07-25T11:28:44.769Z,2.70
2023-07-25T11:34:12.300Z,2.75
2023-07-25T11:44:55.659Z,2.38
2023-07-25T11:50:26.360Z,2.92
2023-07-25T11:55:52.455Z,2.22
2023-07-25T12:01:14.570Z,2.80
2023-07-25T12:06:38.023Z,3.03
2023-07-25T12:12:00.241Z,2.50
2023-07-25T12:17:22.339Z,2.55
2023-07-25T12:22:48.954Z,2.53
2023-07-25T12:28:11.069Z,2.72
2023-07-25T12:33:33.889Z,2.60
2023-07-25T12:38:59.138Z,2.83
2023-07-25T12:44:26.526Z,2.65
2023-07-25T12:49:48.488Z,2.75
2023-07-25T12:55:11.982Z,3.30
2023-07-25T13:00:34.128Z,3.53
2023-07-25T13:05:56.545Z,3.17
2023-07-25T13:11:19.985Z,3.40
2023-07-25T13:16:42.244Z,3.33
2023-07-25T13:22:04.550Z,3.40
2023-07-25T13:27:29.134Z,3.08
2023-07-25T13:32:51.362Z,3.00
2023-07-25T13:38:13.466Z,3.10
2023-07-25T13:43:37.686Z,3.30
2023-07-25T13:48:59.588Z,3.42
2023-07-25T13:54:21.765Z,3.30
2023-07-25T13:59:45.351Z,3.38
2023-07-25T14:05:07.920Z,3.30
2023-07-25T14:10:30.523Z,3.33
2023-07-25T14:15:55.879Z,3.38
2023-07-25T14:21:18.020Z,3.78
2023-07-25T14:26:40.280Z,4.03
2023-07-25T14:32:03.801Z,3.90
2023-07-25T14:37:31.314Z,3.92
2023-07-25T14:43:02.182Z,5.00
2023-07-25T14:48:25.422Z,3.63
2023-07-25T14:53:47.433Z,4.00
2023-07-25T14:59:09.691Z,3.95
2023-07-25T15:04:33.158Z,4.13
2023-07-25T15:09:55.971Z,4.63
2023-07-25T15:15:18.782Z,4.18
2023-07-25T15:20:42.062Z,4.93
2023-07-25T15:26:07.306Z,3.92
2023-07-25T15:31:29.763Z,4.28
2023-07-25T15:36:53.359Z,4.55
2023-07-25T15:42:15.388Z,4.25
2023-07-25T15:47:37.431Z,4.10
2023-07-25T15:53:01.884Z,4.30
2023-07-25T15:58:23.971Z,4.72
2023-07-25T16:03:46.670Z,4.07
2023-07-25T16:09:15.202Z,4.63
2023-07-25T16:14:37.711Z,4.32
2023-07-25T16:20:00.878Z,4.10
2023-07-25T16:25:26.476Z,4.30
2023-07-25T16:30:48.895Z,4.28
2023-07-25T16:36:11.002Z,3.88
2023-07-25T16:41:34.830Z,3.95
2023-07-25T16:46:56.804Z,4.60
2023-07-25T16:52:18.817Z,4.10
2023-07-25T16:57:42.465Z,3.60
2023-07-25T17:03:05.340Z,3.55
2023-07-25T17:08:27.647Z,4.07
2023-07-25T17:13:51.127Z,4.85
2023-07-25T17:19:14.769Z,4.43
2023-07-25T17:24:37.195Z,4.07
2023-07-25T17:30:00.841Z,4.10
2023-07-25T17:35:31.977Z,4.60
2023-07-25T17:40:58.233Z,3.85
2023-07-25T17:46:21.561Z,4.18
2023-07-25T17:51:43.723Z,3.63
2023-07-25T17:57:06.121Z,3.65
2023-07-25T18:02:29.488Z,4.22
2023-07-25T18:07:51.668Z,4.15
2023-07-25T18:13:13.954Z,4.35
2023-07-25T18:18:37.216Z,4.75
2023-07-25T18:23:59.467Z,3.65
2023-07-25T18:29:21.526Z,3.80
2023-07-25T18:34:44.834Z,4.18
2023-07-25T18:40:08.278Z,3.80
2023-07-25T18:45:30.578Z,3.47
2023-07-25T18:50:54.436Z,3.40
2023-07-25T18:56:21.476Z,3.65
2023-07-25T19:01:43.532Z,3.90
2023-07-25T19:07:07.673Z,3.53
2023-07-25T19:12:29.606Z,3.28
2023-07-25T19:17:51.911Z,3.55
2023-07-25T19:23:24.791Z,3.50
2023-07-25T19:28:47.606Z,3.25
2023-07-25T19:34:09.453Z,3.17
2023-07-25T19:39:34.888Z,3.05
2023-07-25T19:44:57.068Z,4.07
2023-07-25T19:50:18.939Z,3.40
2023-07-25T19:55:42.487Z,3.15
2023-07-25T20:01:06.620Z,3.53
2023-07-25T20:06:28.684Z,3.17
2023-07-25T20:11:52.018Z,2.78
2023-07-25T20:17:13.908Z,3.03
2023-07-25T20:22:36.358Z,2.95
2023-07-25T20:28:00.090Z,3.10
2023-07-25T20:33:22.647Z,2.65
2023-07-25T20:38:47.583Z,2.72
2023-07-25T20:44:11.018Z,2.22
2023-07-25T20:49:33.220Z,2.45
2023-07-25T20:54:55.163Z,2.75
2023-07-25T21:00:19.036Z,2.53
2023-07-25T21:05:41.248Z,2.78
2023-07-25T21:11:03.280Z,2.35
2023-07-25T21:16:26.739Z,3.10
2023-07-25T21:21:49.065Z,2.42
2023-07-25T21:27:11.173Z,2.10
2023-07-25T21:32:35.306Z,2.70
2023-07-25T21:37:52.610Z,2.97
2023-07-25T21:43:14.559Z,3.47
2023-07-25T21:48:37.769Z,3.33
2023-07-25T21:54:00.008Z,3.58
2023-07-25T21:59:22.178Z,3.35
2023-07-25T22:04:45.583Z,3.08
2023-07-25T22:10:08.067Z,3.58
2023-07-25T22:15:30.199Z,2.90
2023-07-25T22:20:53.977Z,2.75
2023-07-25T22:26:16.236Z,3.00
2023-07-25T22:31:38.616Z,2.70
2023-07-25T22:37:02.020Z,3.05
2023-07-25T22:42:30.421Z,3.35
2023-07-25T22:47:52.583Z,3.30
2023-07-25T22:53:15.832Z,3.50
2023-07-25T22:58:37.670Z,4.15
2023-07-25T23:03:59.950Z,3.67
2023-07-25T23:09:23.196Z,3.53
2023-07-25T23:14:45.404Z,4.55
2023-07-25T23:20:08.423Z,4.57
2023-07-25T23:25:31.644Z,3.92
2023-07-25T23:30:53.483Z,4.07
2023-07-25T23:36:17.166Z,4.32
2023-07-25T23:41:40.613Z,4.13
2023-07-25T23:47:02.902Z,4.35
2023-07-25T23:52:24.981Z,3.90
2023-07-25T23:57:48.892Z,3.33
